createdAt,value
2019-02-23T00:00:09.413Z,71.02
2019-02-23T00:01:16.378Z,71.17
2019-02-23T00:02:21.428Z,71.23
2019-02-23T00:03:25.659Z,71.88
2019-02-23T00:04:29.818Z,71.39
2019-02-23T00:05:34.208Z,71.43
2019-02-23T00:06:38.378Z,71.82
2019-02-23T00:07:42.626Z,72.03
2019-02-23T00:08:46.875Z,71.87
2019-02-23T00:09:51.236Z,72.09
2019-02-23T00:10:55.484Z,71.86
2019-02-23T00:11:59.541Z,71.68
2019-02-23T00:13:03.598Z,72.32
2019-02-23T00:14:07.746Z,72.21
2019-02-23T00:15:11.797Z,72.03
2019-02-23T00:16:15.898Z,72.30
2019-02-23T00:17:19.907Z,72.24
2019-02-23T00:18:23.953Z,72.30
2019-02-23T00:19:28.044Z,72.60
2019-02-23T00:20:32.152Z,72.25
2019-02-23T00:21:36.220Z,72.67
2019-02-23T00:22:40.278Z,72.37
2019-02-23T00:23:44.308Z,72.35
2019-02-23T00:24:48.330Z,72.44
2019-02-23T00:25:52.436Z,72.33
2019-02-23T00:26:56.525Z,72.32
2019-02-23T00:28:00.638Z,72.61
2019-02-23T00:29:04.764Z,72.81
2019-02-23T00:30:08.947Z,73.07
2019-02-23T00:31:13.001Z,73.37
2019-02-23T00:32:17.110Z,72.52
2019-02-23T00:33:21.127Z,72.43
2019-02-23T00:34:25.159Z,73.15
2019-02-23T00:35:29.319Z,72.73
2019-02-23T00:36:33.354Z,72.57
2019-02-23T00:37:37.368Z,72.74
2019-02-23T00:38:41.441Z,73.09
2019-02-23T00:39:45.470Z,73.34
2019-02-23T00:40:49.562Z,73.72
2019-02-23T00:41:53.615Z,73.57
2019-02-23T00:42:57.620Z,73.42
2019-02-23T00:44:01.666Z,73.37
2019-02-23T00:45:05.797Z,73.77
2019-02-23T00:46:10.098Z,73.46
2019-02-23T00:47:14.517Z,73.48
2019-02-23T00:48:18.665Z,73.29
2019-02-23T00:49:22.696Z,73.90
2019-02-23T00:50:26.993Z,74.12
2019-02-23T00:51:31.518Z,74.50
2019-02-23T00:52:35.537Z,74.33
2019-02-23T00:53:39.615Z,74.23
2019-02-23T00:54:43.654Z,74.34
2019-02-23T00:55:47.703Z,74.17
2019-02-23T00:56:51.828Z,74.02
2019-02-23T00:57:55.848Z,74.62
2019-02-23T00:58:59.830Z,74.57
2019-02-23T01:00:04.048Z,74.78
2019-02-23T01:01:08.216Z,74.62
2019-02-23T01:02:12.306Z,75.04
2019-02-23T01:03:16.419Z,75.24
2019-02-23T01:04:20.462Z,74.61
2019-02-23T01:05:24.508Z,75.55
2019-02-23T01:06:28.514Z,75.11
2019-02-23T01:07:32.639Z,75.16
2019-02-23T01:08:36.691Z,74.97
2019-02-23T01:09:40.725Z,75.36
2019-02-23T01:10:45.026Z,75.04
2019-02-23T01:11:49.383Z,75.97
2019-02-23T01:12:53.732Z,75.08
2019-02-23T01:13:58.060Z,75.88
2019-02-23T01:15:02.495Z,75.03
2019-02-23T01:16:06.869Z,74.68
2019-02-23T01:17:11.081Z,75.76
2019-02-23T01:18:15.401Z,76.03
2019-02-23T01:19:19.786Z,76.18
2019-02-23T01:20:24.132Z,76.67
2019-02-23T01:21:28.500Z,75.81
2019-02-23T01:22:32.938Z,76.67
2019-02-23T01:23:37.223Z,77.14
2019-02-23T01:24:41.527Z,76.55
2019-02-23T01:25:45.868Z,76.95
2019-02-23T01:26:50.136Z,76.91
2019-02-23T01:27:54.489Z,77.39
2019-02-23T01:28:58.904Z,77.59
2019-02-23T01:30:03.336Z,77.51
2019-02-23T01:31:07.698Z,78.10
2019-02-23T01:32:12.015Z,77.98
2019-02-23T01:33:16.413Z,78.17
2019-02-23T01:34:20.754Z,78.28
2019-02-23T01:35:25.139Z,77.83
2019-02-23T01:36:29.460Z,78.94
2019-02-23T01:37:33.825Z,77.16
2019-02-23T01:38:37.844Z,78.59
2019-02-23T01:39:41.976Z,79.25
2019-02-23T01:40:46.178Z,78.22
2019-02-23T01:41:50.226Z,78.85
2019-02-23T01:42:54.296Z,78.89
2019-02-23T01:44:00.468Z,77.50
2019-02-23T01:45:02.498Z,79.14
2019-02-23T01:46:06.541Z,78.74
2019-02-23T01:47:10.538Z,78.42
2019-02-23T01:48:14.628Z,79.31
2019-02-23T01:49:18.678Z,80.16
2019-02-23T01:50:22.852Z,80.22
2019-02-23T01:51:26.870Z,81.27
2019-02-23T01:52:30.885Z,80.11
2019-02-23T01:53:34.951Z,79.76
2019-02-23T01:54:38.988Z,79.10
2019-02-23T01:55:43.081Z,79.78
2019-02-23T01:56:47.193Z,81.00
2019-02-23T01:57:51.251Z,81.11
2019-02-23T01:58:55.331Z,81.00
2019-02-23T01:59:59.364Z,81.43
2019-02-23T02:01:03.531Z,80.53
2019-02-23T02:02:07.589Z,81.30
2019-02-23T02:03:11.656Z,81.63
2019-02-23T02:04:15.749Z,80.09
2019-02-23T02:05:19.795Z,81.90
2019-02-23T02:06:23.801Z,81.58
2019-02-23T02:07:27.886Z,82.03
2019-02-23T02:08:31.924Z,81.89
2019-02-23T02:09:35.934Z,81.68
2019-02-23T02:10:39.952Z,81.70
2019-02-23T02:11:44.072Z,81.35
2019-02-23T02:12:48.165Z,80.50
2019-02-23T02:13:52.290Z,82.20
2019-02-23T02:14:56.417Z,81.62
2019-02-23T02:16:00.506Z,80.70
2019-02-23T02:17:04.668Z,81.71
2019-02-23T02:18:08.744Z,81.91
2019-02-23T02:19:12.727Z,81.50
2019-02-23T02:20:16.967Z,81.68
2019-02-23T02:21:20.997Z,82.64
2019-02-23T02:22:25.095Z,81.70
2019-02-23T02:23:29.102Z,82.01
2019-02-23T02:24:33.117Z,81.35
2019-02-23T02:25:37.533Z,82.35
2019-02-23T02:26:41.862Z,81.01
2019-02-23T02:27:46.274Z,82.02
2019-02-23T02:28:50.559Z,81.25
2019-02-23T02:29:54.930Z,82.06
2019-02-23T02:30:59.438Z,82.05
2019-02-23T02:32:03.737Z,83.24
2019-02-23T02:33:08.210Z,83.61
2019-02-23T02:34:16.056Z,82.77
2019-02-23T02:35:20.400Z,82.63
2019-02-23T02:36:24.760Z,82.16
2019-02-23T02:37:29.159Z,83.28
2019-02-23T02:38:33.548Z,82.86
2019-02-23T02:39:37.908Z,82.51
2019-02-23T02:40:42.225Z,82.65
2019-02-23T02:41:46.496Z,83.13
2019-02-23T02:42:50.736Z,82.70
2019-02-23T02:43:55.076Z,81.33
2019-02-23T02:44:59.569Z,82.98
2019-02-23T02:46:03.937Z,82.37
2019-02-23T02:47:08.164Z,82.74
2019-02-23T02:48:12.507Z,83.81
2019-02-23T02:49:16.924Z,82.92
2019-02-23T02:50:24.608Z,84.08
2019-02-23T02:51:25.402Z,84.37
2019-02-23T02:52:29.443Z,82.55
2019-02-23T02:53:33.443Z,83.24
2019-02-23T02:54:37.523Z,83.75
2019-02-23T02:55:41.520Z,83.22
2019-02-23T02:56:45.544Z,83.67
2019-02-23T02:57:49.518Z,83.09
2019-02-23T02:58:53.513Z,83.71
2019-02-23T02:59:57.574Z,83.71
2019-02-23T03:01:01.593Z,82.96
2019-02-23T03:02:05.723Z,84.46
2019-02-23T03:03:09.708Z,83.72
2019-02-23T03:04:13.774Z,84.52
2019-02-23T03:05:17.897Z,82.79
2019-02-23T03:06:21.975Z,83.85
2019-02-23T03:07:26.028Z,82.92
2019-02-23T03:08:30.062Z,84.13
2019-02-23T03:09:34.076Z,84.25
2019-02-23T03:10:38.120Z,85.60
2019-02-23T03:11:42.286Z,84.14
2019-02-23T03:12:46.288Z,84.05
2019-02-23T03:13:50.343Z,85.18
2019-02-23T03:14:54.407Z,85.01
2019-02-23T03:15:58.559Z,84.14
2019-02-23T03:17:02.626Z,83.64
2019-02-23T03:18:06.651Z,84.64
2019-02-23T03:19:10.650Z,83.74
2019-02-23T03:20:14.652Z,84.13
2019-02-23T03:21:18.691Z,83.87
2019-02-23T03:22:22.707Z,85.12
2019-02-23T03:23:26.828Z,83.80
2019-02-23T03:24:30.820Z,84.02
2019-02-23T03:25:34.802Z,84.12
2019-02-23T03:26:38.862Z,85.92
2019-02-23T03:27:42.871Z,84.19
2019-02-23T03:28:46.882Z,84.63
2019-02-23T03:29:50.919Z,84.27
2019-02-23T03:30:54.945Z,85.29
2019-02-23T03:31:59.014Z,86.18
2019-02-23T03:33:03.036Z,84.15
2019-02-23T03:34:07.076Z,84.74
2019-02-23T03:35:11.097Z,85.36
2019-02-23T03:36:15.135Z,83.31
2019-02-23T03:37:19.201Z,83.78
2019-02-23T03:38:23.268Z,85.25
2019-02-23T03:39:27.387Z,85.62
2019-02-23T03:40:31.441Z,86.44
2019-02-23T03:41:35.571Z,85.13
2019-02-23T03:42:39.655Z,85.50
2019-02-23T03:43:43.717Z,85.03
2019-02-23T03:44:47.715Z,86.26
2019-02-23T03:45:51.718Z,86.66
2019-02-23T03:46:55.715Z,84.27
2019-02-23T03:47:59.765Z,84.51
2019-02-23T03:49:03.821Z,83.87
2019-02-23T03:50:08.054Z,84.76
2019-02-23T03:51:12.116Z,84.87
2019-02-23T03:52:16.142Z,85.05
2019-02-23T03:53:20.202Z,85.26
2019-02-23T03:54:24.233Z,85.49
2019-02-23T03:55:28.292Z,85.08
2019-02-23T03:56:32.716Z,84.76
2019-02-23T03:57:36.770Z,84.74
2019-02-23T03:58:40.801Z,84.00
2019-02-23T03:59:44.938Z,84.62
2019-02-23T04:00:48.962Z,85.37
2019-02-23T04:01:53.006Z,85.14
2019-02-23T04:02:57.042Z,84.79
2019-02-23T04:04:01.104Z,83.39
2019-02-23T04:05:05.556Z,84.12
2019-02-23T04:06:09.861Z,84.92
2019-02-23T04:07:14.194Z,84.15
2019-02-23T04:08:18.577Z,84.82
2019-02-23T04:09:23.023Z,83.93
2019-02-23T04:10:27.286Z,85.32
2019-02-23T04:11:31.645Z,85.32
2019-02-23T04:12:35.902Z,84.76
2019-02-23T04:13:40.257Z,85.63
2019-02-23T04:14:44.682Z,84.68
2019-02-23T04:15:48.711Z,83.33
2019-02-23T04:16:52.746Z,83.81
2019-02-23T04:17:56.778Z,85.48
2019-02-23T04:19:00.799Z,85.81
2019-02-23T04:20:05.211Z,84.88
2019-02-23T04:21:09.224Z,84.90
2019-02-23T04:22:13.541Z,86.37
2019-02-23T04:23:17.872Z,84.96
2019-02-23T04:24:22.152Z,84.93
2019-02-23T04:25:26.252Z,85.54
2019-02-23T04:26:30.275Z,84.85
2019-02-23T04:27:34.315Z,83.64
2019-02-23T04:28:38.347Z,83.17
2019-02-23T04:29:42.337Z,85.25
2019-02-23T04:30:46.364Z,85.86
2019-02-23T04:31:50.424Z,84.19
2019-02-23T04:32:54.438Z,84.79
2019-02-23T04:33:58.422Z,84.50
2019-02-23T04:35:02.470Z,85.23
2019-02-23T04:36:06.543Z,86.72
2019-02-23T04:37:10.523Z,84.57
2019-02-23T04:38:14.548Z,85.70
2019-02-23T04:39:18.568Z,85.20
2019-02-23T04:40:22.578Z,86.11
2019-02-23T04:41:26.703Z,85.20
2019-02-23T04:42:30.743Z,85.70
2019-02-23T04:43:34.748Z,85.25
2019-02-23T04:44:38.782Z,84.88
2019-02-23T04:45:42.841Z,83.81
2019-02-23T04:46:46.910Z,86.24
2019-02-23T04:47:51.431Z,85.08
2019-02-23T04:48:55.452Z,86.43
2019-02-23T04:49:59.463Z,85.73
2019-02-23T04:51:13.878Z,85.00
2019-02-23T04:52:07.680Z,84.37
2019-02-23T04:53:11.716Z,85.85
2019-02-23T04:54:15.792Z,85.57
2019-02-23T04:55:19.800Z,85.97
2019-02-23T04:56:23.830Z,85.24
2019-02-23T04:57:28.051Z,84.56
2019-02-23T04:58:32.052Z,85.27
2019-02-23T04:59:36.040Z,85.73
2019-02-23T05:00:40.041Z,86.16
2019-02-23T05:01:44.063Z,84.55
2019-02-23T05:02:48.126Z,84.32
2019-02-23T05:03:52.149Z,84.95
2019-02-23T05:04:56.192Z,87.06
2019-02-23T05:06:00.212Z,85.32
2019-02-23T05:07:04.240Z,85.01
2019-02-23T05:08:08.463Z,85.06
2019-02-23T05:09:12.472Z,86.02
2019-02-23T05:10:16.493Z,85.97
2019-02-23T05:11:20.541Z,85.36
2019-02-23T05:12:24.628Z,85.10
2019-02-23T05:13:28.726Z,86.74
2019-02-23T05:14:32.839Z,86.03
2019-02-23T05:15:36.931Z,86.28
2019-02-23T05:16:40.956Z,86.00
2019-02-23T05:17:45.055Z,85.41
2019-02-23T05:18:49.173Z,85.69
2019-02-23T05:19:53.296Z,86.15
2019-02-23T05:20:57.330Z,84.40
2019-02-23T05:22:01.453Z,85.93
2019-02-23T05:23:05.604Z,86.04
2019-02-23T05:24:09.827Z,86.70
2019-02-23T05:25:13.972Z,85.15
2019-02-23T05:26:18.046Z,86.09
2019-02-23T05:27:22.133Z,84.78
2019-02-23T05:28:26.230Z,85.57
2019-02-23T05:29:30.303Z,86.00
2019-02-23T05:30:34.324Z,86.25
2019-02-23T05:31:38.387Z,86.49
2019-02-23T05:32:42.385Z,86.68
2019-02-23T05:33:46.394Z,83.97
2019-02-23T05:34:50.551Z,84.91
2019-02-23T05:35:54.554Z,86.00
2019-02-23T05:36:58.567Z,85.98
2019-02-23T05:38:02.601Z,86.77
2019-02-23T05:39:07.178Z,86.53
2019-02-23T05:40:11.682Z,84.05
2019-02-23T05:41:15.710Z,86.24
2019-02-23T05:42:19.749Z,85.59
2019-02-23T05:43:23.746Z,85.80
2019-02-23T05:44:27.746Z,85.74
2019-02-23T05:45:31.863Z,84.77
2019-02-23T05:46:35.868Z,86.33
2019-02-23T05:47:39.886Z,87.24
2019-02-23T05:48:43.895Z,86.26
2019-02-23T05:49:47.955Z,86.69
2019-02-23T05:50:52.081Z,86.83
2019-02-23T05:51:56.142Z,86.63
2019-02-23T05:53:00.133Z,86.39
2019-02-23T05:54:04.198Z,87.20
2019-02-23T05:55:08.248Z,86.54
2019-02-23T05:56:15.980Z,85.02
2019-02-23T05:57:16.386Z,86.93
2019-02-23T05:58:20.405Z,87.40
2019-02-23T05:59:24.475Z,86.78
2019-02-23T06:00:28.820Z,87.41
2019-02-23T06:01:33.289Z,86.08
2019-02-23T06:02:37.653Z,85.16
2019-02-23T06:03:41.705Z,85.34
2019-02-23T06:04:46.057Z,85.71
2019-02-23T06:05:50.253Z,86.11
2019-02-23T06:06:54.305Z,86.35
2019-02-23T06:07:58.334Z,85.94
2019-02-23T06:09:02.415Z,86.09
2019-02-23T06:10:08.448Z,86.66
2019-02-23T06:11:12.508Z,85.44
2019-02-23T06:12:16.548Z,85.47
2019-02-23T06:13:20.579Z,83.48
2019-02-23T06:14:24.639Z,85.46
2019-02-23T06:15:35.105Z,86.57
2019-02-23T06:16:39.197Z,85.96
2019-02-23T06:17:43.475Z,86.68
2019-02-23T06:18:47.799Z,85.80
2019-02-23T06:19:52.081Z,86.51
2019-02-23T06:20:56.501Z,86.00
2019-02-23T06:22:00.556Z,87.29
2019-02-23T06:23:04.938Z,85.17
2019-02-23T06:24:08.942Z,83.41
2019-02-23T06:25:13.030Z,84.16
2019-02-23T06:26:17.034Z,83.37
2019-02-23T06:27:21.051Z,85.04
2019-02-23T06:28:31.905Z,84.32
2019-02-23T06:29:36.219Z,84.96
2019-02-23T06:30:40.455Z,84.98
2019-02-23T06:31:44.581Z,84.79
2019-02-23T06:32:48.820Z,84.65
2019-02-23T06:33:53.126Z,84.51
2019-02-23T06:34:57.477Z,84.05
2019-02-23T06:36:01.845Z,84.32
2019-02-23T06:37:06.384Z,83.18
2019-02-23T06:38:10.525Z,85.28
2019-02-23T06:39:14.554Z,85.30
2019-02-23T06:40:18.670Z,84.96
2019-02-23T06:41:22.719Z,84.60
2019-02-23T06:42:26.773Z,84.59
2019-02-23T06:43:30.843Z,85.49
2019-02-23T06:44:34.867Z,84.89
2019-02-23T06:45:38.926Z,84.27
2019-02-23T06:46:42.993Z,84.09
2019-02-23T06:47:47.107Z,84.31
2019-02-23T06:48:51.235Z,84.49
2019-02-23T06:49:55.242Z,83.72
2019-02-23T06:50:59.298Z,83.91
2019-02-23T06:52:04.595Z,83.31
2019-02-23T06:53:07.448Z,83.35
2019-02-23T06:54:11.448Z,83.91
2019-02-23T06:55:15.507Z,84.90
2019-02-23T06:56:19.565Z,82.88
2019-02-23T06:57:23.568Z,83.84
2019-02-23T06:58:27.669Z,83.25
2019-02-23T06:59:31.675Z,83.45
2019-02-23T07:00:35.730Z,81.44
2019-02-23T07:01:39.765Z,83.93
2019-02-23T07:02:43.728Z,83.28
2019-02-23T07:03:47.805Z,82.67
2019-02-23T07:04:51.845Z,83.59
2019-02-23T07:05:56.021Z,83.76
2019-02-23T07:07:00.078Z,83.63
2019-02-23T07:08:04.112Z,83.63
2019-02-23T07:09:08.660Z,84.01
2019-02-23T07:10:13.161Z,83.84
2019-02-23T07:11:17.621Z,84.34
2019-02-23T07:12:21.327Z,82.79
2019-02-23T07:13:25.364Z,84.46
2019-02-23T07:14:29.406Z,83.55
2019-02-23T07:15:33.713Z,83.14
2019-02-23T07:16:38.112Z,84.25
2019-02-23T07:17:42.494Z,81.68
2019-02-23T07:18:46.488Z,82.82
2019-02-23T07:19:50.595Z,82.91
2019-02-23T07:20:54.625Z,83.17
2019-02-23T07:21:58.632Z,81.36
2019-02-23T07:23:02.658Z,83.19
2019-02-23T07:24:06.711Z,81.08
2019-02-23T07:25:10.930Z,83.82
2019-02-23T07:26:14.977Z,82.87
2019-02-23T07:27:19.038Z,82.92
2019-02-23T07:28:23.092Z,83.39
2019-02-23T07:29:27.152Z,81.52
2019-02-23T07:30:31.214Z,82.14
2019-02-23T07:31:35.253Z,82.39
2019-02-23T07:32:39.323Z,80.50
2019-02-23T07:33:43.401Z,82.28
2019-02-23T07:34:47.454Z,82.25
2019-02-23T07:35:51.564Z,81.81
2019-02-23T07:36:55.592Z,80.89
2019-02-23T07:37:59.688Z,80.35
2019-02-23T07:39:03.918Z,80.28
2019-02-23T07:40:08.803Z,82.04
2019-02-23T07:41:12.930Z,80.06
2019-02-23T07:42:16.943Z,81.11
2019-02-23T07:43:20.995Z,80.64
2019-02-23T07:44:25.104Z,80.60
2019-02-23T07:45:29.154Z,79.77
2019-02-23T07:46:33.233Z,80.79
2019-02-23T07:47:37.351Z,80.99
2019-02-23T07:48:41.382Z,80.39
2019-02-23T07:49:45.432Z,80.60
2019-02-23T07:50:49.511Z,80.39
2019-02-23T07:51:53.692Z,81.33
2019-02-23T07:52:57.751Z,81.62
2019-02-23T07:54:01.789Z,80.56
2019-02-23T07:55:05.966Z,80.59
2019-02-23T07:56:10.069Z,80.92
2019-02-23T07:57:14.237Z,79.77
2019-02-23T07:58:18.296Z,80.26
2019-02-23T07:59:22.367Z,80.09
2019-02-23T08:00:26.440Z,80.12
2019-02-23T08:01:30.565Z,79.59
2019-02-23T08:02:34.662Z,80.64
2019-02-23T08:03:38.750Z,80.66
2019-02-23T08:04:42.811Z,80.64
2019-02-23T08:05:47.000Z,80.38
2019-02-23T08:06:51.039Z,79.90
2019-02-23T08:07:55.298Z,80.36
2019-02-23T08:08:59.380Z,80.58
2019-02-23T08:10:03.466Z,80.32
2019-02-23T08:11:07.563Z,79.86
2019-02-23T08:12:11.610Z,80.45
2019-02-23T08:13:15.721Z,79.60
2019-02-23T08:14:19.823Z,78.77
2019-02-23T08:15:23.920Z,78.89
2019-02-23T08:16:28.030Z,80.15
2019-02-23T08:17:32.142Z,79.49
2019-02-23T08:18:36.272Z,78.41
2019-02-23T08:19:40.414Z,77.93
2019-02-23T08:20:44.442Z,78.93
2019-02-23T08:21:48.545Z,80.39
2019-02-23T08:22:52.609Z,78.98
2019-02-23T08:23:57.457Z,79.14
2019-02-23T08:25:01.565Z,79.86
2019-02-23T08:26:05.656Z,79.12
2019-02-23T08:27:09.667Z,77.75
2019-02-23T08:28:13.727Z,78.34
2019-02-23T08:29:17.953Z,78.36
2019-02-23T08:30:22.054Z,78.87
2019-02-23T08:31:26.102Z,78.72
2019-02-23T08:32:30.162Z,77.34
2019-02-23T08:33:34.190Z,77.82
2019-02-23T08:34:38.198Z,78.98
2019-02-23T08:35:42.355Z,78.18
2019-02-23T08:36:46.427Z,77.57
2019-02-23T08:37:50.498Z,77.07
2019-02-23T08:38:54.565Z,76.91
2019-02-23T08:39:58.675Z,77.52
2019-02-23T08:41:02.728Z,77.01
2019-02-23T08:42:06.922Z,76.84
2019-02-23T08:43:10.967Z,75.61
2019-02-23T08:44:15.071Z,77.16
2019-02-23T08:45:19.127Z,76.85
2019-02-23T08:46:23.153Z,76.68
2019-02-23T08:47:27.236Z,77.61
2019-02-23T08:48:33.392Z,77.33
2019-02-23T08:49:35.627Z,77.20
2019-02-23T08:50:39.723Z,76.68
2019-02-23T08:51:43.816Z,76.78
2019-02-23T08:52:49.513Z,76.99
2019-02-23T08:53:52.159Z,76.55
2019-02-23T08:54:56.220Z,76.60
2019-02-23T08:56:00.273Z,75.65
2019-02-23T08:57:04.313Z,75.15
2019-02-23T08:58:08.379Z,74.77
2019-02-23T08:59:12.518Z,75.25
2019-02-23T09:00:17.183Z,75.04
2019-02-23T09:01:21.235Z,75.23
2019-02-23T09:02:25.313Z,75.84
2019-02-23T09:03:29.422Z,74.92
2019-02-23T09:04:33.484Z,75.68
2019-02-23T09:05:37.597Z,75.72
2019-02-23T09:06:41.703Z,75.31
2019-02-23T09:07:45.937Z,75.14
2019-02-23T09:08:50.025Z,75.05
2019-02-23T09:10:00.736Z,74.18
2019-02-23T09:11:04.878Z,74.33
2019-02-23T09:12:08.916Z,74.38
2019-02-23T09:13:13.001Z,73.60
2019-02-23T09:14:17.072Z,74.79
2019-02-23T09:15:22.316Z,73.63
2019-02-23T09:16:25.309Z,73.02
2019-02-23T09:17:29.356Z,73.06
2019-02-23T09:18:33.347Z,73.64
2019-02-23T09:19:37.369Z,73.24
2019-02-23T09:20:41.375Z,73.23
2019-02-23T09:21:45.466Z,73.91
2019-02-23T09:22:59.490Z,72.90
2019-02-23T09:23:53.659Z,72.02
2019-02-23T09:24:57.694Z,73.35
2019-02-23T09:26:01.849Z,73.15
2019-02-23T09:27:05.933Z,73.48
2019-02-23T09:28:09.982Z,72.34
2019-02-23T09:29:13.966Z,72.64
2019-02-23T09:30:17.946Z,72.67
2019-02-23T09:31:22.052Z,72.50
2019-02-23T09:32:26.250Z,72.26
2019-02-23T09:33:30.402Z,72.25
2019-02-23T09:34:34.437Z,71.11
2019-02-23T09:35:38.533Z,71.28
2019-02-23T09:36:42.617Z,71.78
2019-02-23T09:37:46.798Z,71.95
2019-02-23T09:38:50.818Z,72.11
2019-02-23T09:39:54.849Z,72.23
2019-02-23T09:40:58.919Z,72.34
2019-02-23T09:42:07.431Z,71.85
2019-02-23T09:43:07.495Z,71.87
2019-02-23T09:44:11.779Z,72.34
2019-02-23T09:45:16.613Z,72.41
2019-02-23T09:46:21.302Z,71.16
2019-02-23T09:47:25.842Z,70.03
2019-02-23T09:48:33.743Z,71.65
2019-02-23T09:49:38.738Z,71.04
2019-02-23T09:50:43.323Z,70.63
2019-02-23T09:51:47.989Z,70.43
2019-02-23T09:52:52.454Z,71.23
2019-02-23T09:53:56.988Z,71.09
2019-02-23T09:55:01.446Z,72.30
2019-02-23T09:56:05.730Z,71.17
2019-02-23T09:57:10.048Z,71.65
2019-02-23T09:58:14.558Z,70.96
2019-02-23T09:59:18.651Z,70.42
2019-02-23T10:00:22.755Z,70.09
2019-02-23T10:01:26.804Z,70.32
2019-02-23T10:02:30.934Z,70.14
2019-02-23T10:03:34.978Z,70.89
2019-02-23T10:04:39.040Z,71.58
2019-02-23T10:05:43.103Z,69.97
2019-02-23T10:06:47.345Z,70.87
2019-02-23T10:07:51.425Z,70.94
2019-02-23T10:08:55.553Z,70.81
2019-02-23T10:09:59.738Z,70.71
2019-02-23T10:11:06.723Z,70.67
2019-02-23T10:12:10.903Z,70.81
2019-02-23T10:13:15.062Z,69.68
2019-02-23T10:14:19.168Z,71.41
2019-02-23T10:15:23.369Z,71.71
2019-02-23T10:16:27.499Z,69.90
2019-02-23T10:17:31.549Z,70.77
2019-02-23T10:18:35.669Z,70.58
2019-02-23T10:19:39.709Z,70.57
2019-02-23T10:20:44.112Z,70.46
2019-02-23T10:21:48.324Z,70.07
2019-02-23T10:22:52.720Z,71.55
2019-02-23T10:23:56.829Z,71.10
2019-02-23T10:25:00.915Z,71.16
2019-02-23T10:26:05.083Z,71.37
2019-02-23T10:27:09.178Z,71.04
2019-02-23T10:28:13.299Z,71.48
2019-02-23T10:29:17.347Z,71.37
2019-02-23T10:30:21.453Z,71.55
2019-02-23T10:31:25.602Z,70.60
2019-02-23T10:32:29.755Z,72.15
2019-02-23T10:33:33.868Z,71.59
2019-02-23T10:34:38.053Z,70.74
2019-02-23T10:35:42.204Z,70.83
2019-02-23T10:36:46.369Z,70.58
2019-02-23T10:37:50.612Z,69.75
2019-02-23T10:38:54.840Z,70.30
2019-02-23T10:39:59.102Z,70.25
2019-02-23T10:41:03.298Z,69.74
2019-02-23T10:42:07.565Z,69.24
2019-02-23T10:43:11.737Z,69.81
2019-02-23T10:44:15.865Z,69.91
2019-02-23T10:45:19.926Z,69.33
2019-02-23T10:46:23.947Z,70.14
2019-02-23T10:47:27.997Z,69.69
2019-02-23T10:48:32.032Z,69.82
2019-02-23T10:49:42.691Z,70.56
2019-02-23T10:50:46.774Z,69.65
2019-02-23T10:51:50.866Z,70.40
2019-02-23T10:52:54.962Z,70.33
2019-02-23T10:53:59.064Z,70.64
2019-02-23T10:55:03.111Z,70.06
2019-02-23T10:56:07.319Z,69.78
2019-02-23T10:57:11.323Z,70.71
2019-02-23T10:58:15.414Z,70.46
2019-02-23T10:59:19.425Z,70.35
2019-02-23T11:00:23.841Z,69.64
2019-02-23T11:01:27.961Z,71.08
2019-02-23T11:02:32.579Z,70.31
2019-02-23T11:03:36.821Z,69.36
2019-02-23T11:04:40.842Z,70.16
2019-02-23T11:05:44.950Z,69.52
2019-02-23T11:06:49.177Z,69.60
2019-02-23T11:07:53.214Z,69.71
2019-02-23T11:08:57.360Z,69.60
2019-02-23T11:10:01.444Z,69.49
2019-02-23T11:11:05.716Z,68.96
2019-02-23T11:12:09.842Z,68.87
2019-02-23T11:13:13.953Z,68.91
2019-02-23T11:14:18.153Z,69.28
2019-02-23T11:15:22.714Z,68.83
2019-02-23T11:16:26.914Z,69.08
2019-02-23T11:17:31.189Z,68.20
2019-02-23T11:18:35.600Z,67.95
2019-02-23T11:19:39.778Z,67.77
2019-02-23T11:20:43.954Z,67.94
2019-02-23T11:21:48.034Z,68.48
2019-02-23T11:22:52.084Z,68.06
2019-02-23T11:23:56.118Z,67.91
2019-02-23T11:25:00.317Z,68.73
2019-02-23T11:26:04.360Z,67.86
2019-02-23T11:27:08.491Z,68.30
2019-02-23T11:28:12.564Z,68.07
2019-02-23T11:29:16.722Z,68.84
2019-02-23T11:30:20.894Z,69.06
2019-02-23T11:31:24.963Z,68.83
2019-02-23T11:32:29.082Z,67.86
2019-02-23T11:33:33.250Z,69.02
2019-02-23T11:34:37.325Z,68.72
2019-02-23T11:35:41.459Z,68.82
2019-02-23T11:36:45.535Z,68.74
2019-02-23T11:37:49.585Z,68.27
2019-02-23T11:38:53.641Z,68.37
2019-02-23T11:39:57.690Z,69.03
2019-02-23T11:41:01.812Z,68.87
2019-02-23T11:42:05.950Z,68.50
2019-02-23T11:43:09.971Z,68.63
2019-02-23T11:44:14.070Z,68.05
2019-02-23T11:45:18.105Z,68.26
2019-02-23T11:46:22.250Z,67.35
2019-02-23T11:47:26.307Z,67.32
2019-02-23T11:48:30.345Z,67.37
2019-02-23T11:49:34.354Z,67.76
2019-02-23T11:50:41.232Z,67.23
2019-02-23T11:51:45.640Z,67.11
2019-02-23T11:52:49.701Z,67.60
2019-02-23T11:53:55.216Z,67.15
2019-02-23T11:54:58.008Z,67.00
2019-02-23T11:56:03.273Z,67.86
2019-02-23T11:57:07.540Z,68.15
2019-02-23T11:58:11.688Z,67.82
2019-02-23T11:59:15.777Z,68.04
2019-02-23T12:00:19.802Z,67.63
2019-02-23T12:01:23.877Z,67.64
2019-02-23T12:02:28.127Z,68.69
2019-02-23T12:03:32.155Z,68.98
2019-02-23T12:04:36.179Z,69.00
2019-02-23T12:05:40.298Z,69.36
2019-02-23T12:06:44.301Z,68.93
2019-02-23T12:07:48.385Z,68.79
2019-02-23T12:08:52.470Z,68.12
2019-02-23T12:09:56.486Z,67.31
2019-02-23T12:11:00.536Z,67.00
2019-02-23T12:12:04.555Z,67.39
2019-02-23T12:13:08.656Z,66.44
2019-02-23T12:14:12.691Z,67.40
2019-02-23T12:15:16.832Z,66.72
2019-02-23T12:16:20.901Z,66.56
2019-02-23T12:17:25.023Z,66.38
2019-02-23T12:18:29.135Z,66.92
2019-02-23T12:19:33.178Z,66.11
2019-02-23T12:20:37.300Z,66.01
2019-02-23T12:21:41.368Z,65.76
2019-02-23T12:22:45.483Z,65.63
2019-02-23T12:23:49.620Z,65.37
2019-02-23T12:24:53.778Z,65.41
2019-02-23T12:25:57.787Z,65.27
2019-02-23T12:27:01.822Z,65.21
2019-02-23T12:28:05.834Z,64.99
2019-02-23T12:29:09.975Z,65.38
2019-02-23T12:30:14.161Z,64.83
2019-02-23T12:31:18.205Z,63.72
2019-02-23T12:32:22.316Z,64.09
2019-02-23T12:33:26.375Z,64.34
2019-02-23T12:34:30.492Z,64.01
2019-02-23T12:35:34.587Z,63.51
2019-02-23T12:36:38.652Z,63.17
2019-02-23T12:37:42.690Z,62.76
2019-02-23T12:38:46.788Z,62.59
2019-02-23T12:39:50.987Z,62.06
2019-02-23T12:40:55.066Z,61.88
2019-02-23T12:41:59.101Z,61.63
2019-02-23T12:43:03.165Z,62.10
2019-02-23T12:44:07.280Z,61.59
2019-02-23T12:45:11.437Z,61.50
2019-02-23T12:46:15.471Z,62.21
2019-02-23T12:47:19.615Z,62.09
2019-02-23T12:48:23.648Z,62.10
2019-02-23T12:49:27.705Z,61.98
2019-02-23T12:50:33.397Z,61.79
2019-02-23T12:51:35.858Z,61.51
2019-02-23T12:52:39.993Z,61.67
2019-02-23T12:53:44.022Z,61.90
2019-02-23T12:54:48.066Z,62.21
2019-02-23T12:55:52.183Z,62.15
2019-02-23T12:56:56.219Z,61.97
2019-02-23T12:58:00.550Z,61.64
2019-02-23T12:59:04.818Z,61.61
2019-02-23T13:00:10.308Z,62.61
2019-02-23T13:01:14.481Z,63.39
2019-02-23T13:02:18.597Z,63.10
2019-02-23T13:03:22.652Z,62.71
2019-02-23T13:04:26.723Z,63.88
2019-02-23T13:05:30.844Z,63.18
2019-02-23T13:06:35.009Z,63.92
2019-02-23T13:07:39.209Z,63.12
2019-02-23T13:08:54.184Z,63.67
2019-02-23T13:09:58.291Z,63.33
2019-02-23T13:11:02.744Z,63.34
2019-02-23T13:14:16.869Z,63.55
2019-02-23T13:15:24.256Z,64.29
2019-02-23T13:16:39.742Z,63.86
2019-02-23T13:17:54.618Z,63.57
2019-02-23T13:19:09.574Z,64.01
2019-02-23T13:20:26.245Z,64.71
2019-02-23T13:21:37.071Z,65.42
2019-02-23T13:23:39.304Z,66.18
2019-02-23T13:26:57.768Z,65.78
2019-02-23T13:28:43.971Z,66.91
2019-02-23T13:30:16.589Z,66.68
2019-02-23T13:31:30.105Z,66.59
2019-02-23T13:32:54.301Z,66.80
2019-02-23T13:36:12.164Z,66.22
2019-02-23T13:37:39.449Z,66.98
2019-02-23T13:39:52.914Z,66.98
2019-02-23T13:41:38.818Z,67.60
2019-02-23T13:43:02.204Z,67.70
2019-02-23T13:44:50.832Z,68.07
2019-02-23T13:46:19.086Z,68.41
2019-02-23T13:48:44.958Z,69.17
2019-02-23T13:53:11.269Z,68.61
2019-02-23T13:56:36.594Z,68.98
2019-02-23T13:57:54.895Z,69.51
2019-02-23T13:59:38.183Z,68.56
2019-02-23T14:02:56.167Z,68.44
2019-02-23T14:04:16.222Z,68.95
2019-02-23T14:06:33.148Z,68.69
2019-02-23T14:07:54.895Z,69.86
2019-02-23T14:10:11.435Z,70.32
2019-02-23T14:13:26.604Z,70.45
2019-02-23T14:16:55.549Z,70.35
2019-02-23T14:18:43.529Z,70.75